Time;durP1;ratioP1;P1;durP2;ratioP2;P2;SDS_P1;SDS_P2;PMS_P1;PMS_P2;Temp;Humidity;BMP_temperature;BMP_pressure;BME280_temperature;BME280_humidity;BME280_pressure;Samples;Min_cycle;Max_cycle;Signal;HPM_P1;HPM_P2
2022/05/10 00:00:40;;;;;;;8.20;4.80;;;;;;;10.62;56.20;99517.61;219434;1274;22584;-71
2022/05/10 00:05:48;;;;;;;5.20;3.90;;;;;;;10.54;56.29;99514.85;220563;1274;336998;-70
2022/05/10 00:10:56;;;;;;;9.60;4.10;;;;;;;10.43;56.62;99511.86;220815;1275;22547;-71
2022/05/10 00:16:15;;;;;;;5.80;3.90;;;;;;;10.34;56.55;99512.70;220845;1274;22557;-71
2022/05/10 00:21:24;;;;;;;6.90;4.70;;;;;;;10.26;56.92;99508.61;220735;1275;23739;-70
2022/05/10 00:26:45;;;;;;;8.00;3.90;;;;;;;10.20;57.14;99507.77;220542;1276;22569;-70
2022/05/10 00:32:10;;;;;;;7.00;4.00;;;;;;;10.14;57.28;99507.11;220738;1275;25348;-70
2022/05/10 00:37:23;;;;;;;5.80;3.90;;;;;;;10.05;57.41;99502.66;220925;1274;24233;-70
2022/05/10 00:43:21;;;;;;;4.10;3.30;;;;;;;9.99;57.59;99496.08;219106;1274;22562;-70
2022/05/10 00:48:53;;;;;;;7.50;3.80;;;;;;;9.90;57.58;99494.36;219079;1274;23044;-71
2022/05/10 00:54:37;;;;;;;5.80;3.40;;;;;;;9.81;57.69;99482.34;221228;1276;22589;-70
2022/05/10 01:00:11;;;;;;;5.80;3.70;;;;;;;9.75;58.00;99474.21;221034;1275;22575;-71
2022/05/10 01:05:26;;;;;;;5.40;3.70;;;;;;;9.68;58.13;99465.75;220781;1274;22584;-70
2022/05/10 01:11:21;;;;;;;7.20;3.70;;;;;;;9.62;58.44;99466.97;219682;1274;24271;-71
2022/05/10 01:16:39;;;;;;;6.60;3.70;;;;;;;9.54;58.74;99457.27;220825;1275;25208;-71
2022/05/10 01:22:29;;;;;;;6.20;3.20;;;;;;;9.49;58.79;99453.40;219530;1273;23775;-71
2022/05/10 01:33:38;;;;;;;;;;;;;;;9.30;59.33;99446.09;220739;1276;22604;-71
2022/05/10 01:39:03;;;;;;;5.50;3.20;;;;;;;9.17;59.48;99439.10;220762;1274;23368;-71
2022/05/10 01:44:22;;;;;;;7.10;3.30;;;;;;;9.04;59.76;99440.71;220863;1274;22706;-71
2022/05/10 01:49:41;;;;;;;6.60;3.60;;;;;;;8.95;59.80;99438.38;220812;1276;24253;-69
2022/05/10 01:55:18;;;;;;;7.40;3.60;;;;;;;8.87;59.93;99433.80;219326;1275;26434;-70
2022/05/10 02:01:19;;;;;;;6.30;3.30;;;;;;;8.81;60.19;99435.69;220736;1274;22534;-71
2022/05/10 02:07:10;;;;;;;6.00;3.70;;;;;;;8.75;60.55;99436.41;221173;1274;24235;-71
2022/05/10 02:12:46;;;;;;;6.30;3.30;;;;;;;8.67;60.67;99439.41;220769;1274;22600;-71
2022/05/10 02:18:41;;;;;;;8.90;3.80;;;;;;;8.62;60.72;99434.95;221398;1274;22618;-70
2022/05/10 02:24:33;;;;;;;5.60;3.40;;;;;;;8.57;60.67;99432.58;220674;1276;22551;-70
2022/05/10 02:30:10;;;;;;;4.80;3.10;;;;;;;8.52;60.41;99430.04;220870;1274;22571;-70
2022/05/10 02:35:16;;;;;;;6.70;3.40;;;;;;;8.47;60.49;99431.67;219185;1274;24678;-70
2022/05/10 02:40:19;;;;;;;3.40;2.30;;;;;;;8.44;60.40;99428.21;219610;1274;24230;-70
2022/05/10 02:45:30;;;;;;;3.60;3.00;;;;;;;8.41;60.57;99428.08;218801;1276;25351;-70
2022/05/10 02:50:43;;;;;;;5.40;3.00;;;;;;;8.35;60.46;99428.95;220753;1274;22531;-70
2022/05/10 02:56:02;;;;;;;6.40;3.40;;;;;;;8.31;60.15;99432.39;220112;1274;22541;-71
2022/05/10 03:01:30;;;;;;;4.10;3.30;;;;;;;8.27;60.38;99428.90;220618;1274;22531;-70
2022/05/10 03:06:42;;;;;;;14.00;5.20;;;;;;;8.25;60.34;99422.90;220367;1276;25258;-70
2022/05/10 03:12:06;;;;;;;7.10;3.20;;;;;;;8.21;60.14;99420.15;219277;1276;25366;-70
2022/05/10 03:17:12;;;;;;;3.90;3.20;;;;;;;8.16;60.13;99418.79;218913;1276;22692;-69
2022/05/10 03:22:46;;;;;;;4.80;2.70;;;;;;;8.12;60.24;99415.23;219044;1275;22564;-71
2022/05/10 03:28:06;;;;;;;4.50;2.90;;;;;;;8.12;60.12;99414.05;219150;1274;22602;-70
2022/05/10 03:33:22;;;;;;;4.60;2.30;;;;;;;8.17;60.35;99412.82;219278;1275;22723;-70
2022/05/10 03:38:25;;;;;;;4.30;2.40;;;;;;;8.24;60.00;99412.02;219287;1274;22538;-70
2022/05/10 03:43:27;;;;;;;6.00;2.70;;;;;;;8.32;59.86;99410.95;219119;1274;24262;-70
2022/05/10 03:48:49;;;;;;;;;;;;;;;;;;;;;
2022/05/10 03:54:00;;;;;;;4.10;2.70;;;;;;;8.59;59.67;99410.11;219164;1274;24303;-70
2022/05/10 03:59:03;;;;;;;5.80;2.70;;;;;;;8.72;59.53;99403.44;220117;1273;22551;-70
2022/05/10 04:04:06;;;;;;;5.60;2.40;;;;;;;8.83;59.16;99400.70;219157;1275;22569;-71
2022/05/10 04:09:13;;;;;;;3.90;2.20;;;;;;;8.91;58.86;99402.34;218927;1274;22710;-71
2022/05/10 04:14:29;;;;;;;5.90;2.80;;;;;;;8.98;58.68;99405.09;219089;1275;22720;-71
2022/05/10 04:19:33;;;;;;;4.50;2.70;;;;;;;9.03;58.42;99399.70;219161;1274;22612;-68
2022/05/10 04:24:36;;;;;;;11.00;2.80;;;;;;;9.10;58.58;99399.79;219045;1275;22567;-70
2022/05/10 04:29:38;;;;;;;8.00;2.70;;;;;;;9.17;58.69;99398.79;219072;1275;25439;-70
2022/05/10 04:34:43;;;;;;;5.40;2.90;;;;;;;9.26;58.62;99402.54;218997;1276;22545;-70
2022/05/10 04:45:19;;;;;;;5.50;2.90;;;;;;;9.51;58.78;99408.41;220601;1276;23840;-70
2022/05/10 04:50:22;;;;;;;4.70;2.60;;;;;;;9.64;58.78;99406.98;221007;1274;24232;-71
2022/05/10 04:55:25;;;;;;;5.30;2.80;;;;;;;9.79;58.68;99409.42;221005;1274;22575;-70
2022/05/10 05:00:29;;;;;;;5.30;3.00;;;;;;;9.96;58.78;99407.53;220913;1274;24900;-71
2022/05/10 05:05:35;;;;;;;5.40;2.80;;;;;;;10.09;58.21;99413.95;220723;1274;22550;-71
2022/05/10 05:10:39;;;;;;;6.00;2.80;;;;;;;10.24;58.01;99411.57;220715;1275;22535;-71
2022/05/10 05:15:57;;;;;;;5.90;2.70;;;;;;;10.43;57.79;99414.73;220870;1276;22637;-70
2022/05/10 05:21:01;;;;;;;3.60;2.40;;;;;;;10.62;57.67;99409.38;220746;1277;22542;-70
2022/05/10 05:26:07;;;;;;;5.60;2.90;;;;;;;10.83;57.73;99412.20;220587;1276;22557;-70
2022/05/10 05:31:11;;;;;;;4.30;2.60;;;;;;;11.03;57.23;99415.60;219154;1275;22559;-71
2022/05/10 05:36:14;;;;;;;5.50;2.60;;;;;;;11.22;56.71;99413.67;221092;1276;22560;-71
2022/05/10 05:41:21;;;;;;;4.80;2.60;;;;;;;11.39;56.27;99409.29;221348;1274;22612;-70
2022/05/10 05:46:32;;;;;;;6.20;3.30;;;;;;;11.61;56.08;99414.03;221154;1275;22708;-70
2022/05/10 05:51:35;;;;;;;5.10;3.00;;;;;;;11.85;56.23;99412.52;219957;1274;22716;-70
2022/05/10 05:56:37;;;;;;;3.80;2.70;;;;;;;12.08;55.64;99420.69;218965;1274;25026;-71
2022/05/10 06:01:52;;;;;;;5.60;3.00;;;;;;;12.29;55.48;99423.44;218926;1274;22601;-69
2022/05/10 06:06:55;;;;;;;5.30;3.00;;;;;;;12.51;55.09;99423.33;218967;1274;26625;-68
2022/05/10 06:11:57;;;;;;;5.80;3.00;;;;;;;12.68;54.52;99421.64;218781;1275;24071;-69
2022/05/10 06:17:00;;;;;;;4.00;2.90;;;;;;;12.87;54.17;99420.33;218507;1274;22566;-70
2022/05/10 06:22:19;;;;;;;6.20;3.30;;;;;;;13.07;54.02;99421.17;219846;1273;24248;-70
2022/05/10 06:27:35;;;;;;;4.00;3.10;;;;;;;13.33;53.83;99414.10;219309;1275;24272;-69
2022/05/10 06:32:38;;;;;;;7.10;2.90;;;;;;;13.56;53.49;99413.73;219110;1274;26528;-69
2022/05/10 06:43:02;;;;;;;4.80;3.20;;;;;;;13.92;52.97;99414.31;218780;1275;22532;-69
2022/05/10 06:48:10;;;;;;;4.10;3.20;;;;;;;14.06;52.73;99411.05;219117;1274;22542;-69
2022/05/10 06:53:13;;;;;;;7.20;3.90;;;;;;;14.24;52.49;99410.54;221185;1275;23357;-69
2022/05/10 06:58:21;;;;;;;4.10;3.30;;;;;;;14.44;52.45;99406.82;221088;1276;22681;-69
2022/05/10 07:03:32;;;;;;;5.20;3.30;;;;;;;14.71;52.33;99411.79;218844;1274;22522;-70
2022/05/10 07:08:35;;;;;;;7.20;3.70;;;;;;;14.97;51.95;99409.10;219329;1275;24234;-70
2022/05/10 07:13:38;;;;;;;5.70;3.40;;;;;;;15.19;51.68;99407.61;219577;1274;25280;-70
2022/05/10 07:18:44;;;;;;;6.30;3.50;;;;;;;15.40;51.40;99406.35;219405;1274;25252;-69
2022/05/10 07:24:04;;;;;;;6.30;3.50;;;;;;;15.59;51.34;99405.75;220874;1274;22567;-70
2022/05/10 07:29:17;;;;;;;5.10;3.30;;;;;;;15.86;50.92;99412.38;220884;1276;23932;-70
2022/05/10 07:34:19;;;;;;;5.10;3.40;;;;;;;16.11;50.87;99405.98;220642;1276;24426;-71
2022/05/10 07:39:45;;;;;;;4.10;3.30;;;;;;;16.35;50.48;99405.30;220926;1274;22560;-71
2022/05/10 07:44:51;;;;;;;6.10;3.00;;;;;;;16.49;50.24;99401.36;221196;1274;22835;-70
2022/05/10 07:49:55;;;;;;;4.40;3.30;;;;;;;16.66;50.07;99403.59;220904;1275;24230;-71
2022/05/10 07:54:57;;;;;;;6.50;3.80;;;;;;;16.83;49.72;99404.36;220975;1274;24304;-68
2022/05/10 08:00:02;;;;;;;8.10;3.40;;;;;;;17.01;49.58;99403.98;218871;1274;24259;-69
2022/05/10 08:05:22;;;;;;;3.20;2.90;;;;;;;17.26;49.57;99399.19;219113;1274;25090;-69
2022/05/10 08:10:24;;;;;;;3.70;3.00;;;;;;;17.53;49.30;99401.23;219723;1274;22980;-69
2022/05/10 08:15:47;;;;;;;6.70;3.40;;;;;;;17.77;49.08;99399.48;218832;1274;22541;-69
2022/05/10 08:21:09;;;;;;;3.70;2.90;;;;;;;18.13;48.88;99398.86;218814;1274;25364;-68
2022/05/10 08:26:25;;;;;;;4.30;2.60;;;;;;;18.39;48.16;99395.11;218888;1274;22681;-69
2022/05/10 08:31:28;;;;;;;4.80;3.00;;;;;;;18.53;47.42;99394.98;218984;1274;23423;-70
2022/05/10 08:36:30;;;;;;;2.60;2.20;;;;;;;18.65;47.14;99391.88;218690;1274;23880;-69
2022/05/10 08:41:41;;;;;;;3.60;2.50;;;;;;;18.77;46.47;99391.20;218569;1276;22815;-69
2022/05/10 08:46:47;;;;;;;3.90;2.90;;;;;;;18.81;45.85;99385.93;218757;1276;22689;-71
2022/05/10 08:51:52;;;;;;;6.90;2.30;;;;;;;18.90;45.80;99383.80;218947;1274;22774;-69
2022/05/10 08:57:15;;;;;;;4.90;2.50;;;;;;;19.08;45.56;99379.66;218755;1276;25071;-68
2022/05/10 09:02:29;;;;;;;3.50;2.00;;;;;;;19.34;45.17;99372.11;221103;1274;26556;-69
2022/05/10 09:07:49;;;;;;;3.60;2.60;;;;;;;19.52;43.97;99372.42;218902;1274;24054;-69
2022/05/10 09:13:14;;;;;;;;;;;;;;;19.54;43.25;99366.60;218520;1276;22836;-70
2022/05/10 09:18:19;;;;;;;4.60;2.90;;;;;;;19.64;43.47;99357.25;220823;1276;25367;-69
2022/05/10 09:23:39;;;;;;;3.40;2.50;;;;;;;19.88;43.29;99357.17;218629;1277;22610;-70
2022/05/10 09:29:02;;;;;;;3.90;2.80;;;;;;;20.14;42.41;99352.44;219402;1276;22740;-69
2022/05/10 09:39:35;;;;;;;3.90;2.20;;;;;;;20.16;40.59;99340.07;218839;1274;24675;-70
2022/05/10 09:44:37;;;;;;;4.30;2.20;;;;;;;20.21;40.89;99331.46;218662;1274;24275;-69
2022/05/10 09:49:41;;;;;;;4.10;2.40;;;;;;;20.43;40.86;99327.39;218441;1276;23442;-69
2022/05/10 09:54:45;;;;;;;3.70;2.40;;;;;;;20.61;40.39;99326.09;218762;1274;22570;-70
2022/05/10 09:59:48;;;;;;;4.80;2.30;;;;;;;20.64;39.82;99320.91;219324;1274;22576;-70
2022/05/10 10:04:51;;;;;;;5.30;2.30;;;;;;;20.66;39.56;99313.55;218997;1274;22604;-68
2022/05/10 10:10:12;;;;;;;2.80;2.00;;;;;;;20.64;39.32;99307.13;219639;1275;22607;-69
2022/05/10 10:15:40;;;;;;;4.40;2.20;;;;;;;20.66;38.88;99305.65;219369;1278;26950;-69
2022/05/10 10:20:49;;;;;;;3.60;2.50;;;;;;;20.66;38.96;99295.91;218774;1274;24011;-69
2022/05/10 10:25:58;;;;;;;4.50;2.20;;;;;;;20.79;38.48;99293.35;223007;1274;23089;-69
2022/05/10 10:31:28;;;;;;;2.70;2.40;;;;;;;20.94;38.28;99287.72;218730;1274;24238;-69
2022/05/10 10:36:41;;;;;;;3.50;2.50;;;;;;;21.04;37.77;99282.17;218889;1275;22576;-69
2022/05/10 10:41:53;;;;;;;3.50;2.40;;;;;;;21.16;37.41;99279.41;218981;1274;22759;-71
2022/05/10 10:47:19;;;;;;;3.10;2.20;;;;;;;21.24;36.86;99269.26;218721;1274;22567;-69
2022/05/10 10:52:23;;;;;;;2.90;2.30;;;;;;;21.41;37.18;99261.15;218786;1274;22564;-69
2022/05/10 10:58:05;;;;;;;4.30;2.50;;;;;;;21.62;36.87;99255.70;218790;1277;24334;-69
2022/05/10 11:03:31;;;;;;;4.50;2.60;;;;;;;21.59;36.03;99245.20;218494;1274;24267;-69
2022/05/10 11:08:59;;;;;;;3.20;2.50;;;;;;;21.67;35.94;99242.83;220183;1275;24409;-70
2022/05/10 11:14:35;;;;;;;3.80;2.90;;;;;;;21.76;35.62;99243.90;218412;1274;24463;-69
2022/05/10 11:19:54;;;;;;;5.30;2.50;;;;;;;21.68;34.89;99238.17;218758;1274;25746;-69
2022/05/10 11:25:06;;;;;;;4.00;2.50;;;;;;;21.62;35.23;99229.93;219639;1274;22538;-69
2022/05/10 11:30:19;;;;;;;3.10;2.70;;;;;;;21.82;35.70;99222.16;219628;1275;22546;-70
2022/05/10 11:35:59;;;;;;;5.70;2.90;;;;;;;21.91;34.92;99218.46;220180;1274;25294;-70
2022/05/10 11:41:15;;;;;;;3.90;3.30;;;;;;;21.81;34.53;99210.94;218906;1278;24304;-71
2022/05/10 11:46:18;;;;;;;4.60;2.60;;;;;;;21.77;34.23;99199.67;221020;1275;23220;-70
2022/05/10 11:51:55;;;;;;;4.80;2.70;;;;;;;21.86;34.88;99193.89;218619;1275;25444;-70
2022/05/10 11:56:59;;;;;;;3.20;2.70;;;;;;;22.00;34.62;99187.75;218720;1274;22830;-70
2022/05/10 12:02:07;;;;;;;4.50;2.90;;;;;;;22.08;34.61;99183.02;218797;1275;25323;-69
2022/05/10 12:07:19;;;;;;;4.60;2.90;;;;;;;22.07;34.35;99177.14;218909;1274;801464;-69
2022/05/10 12:12:31;;;;;;;2.70;2.40;;;;;;;22.13;34.38;99170.55;219455;1274;23053;-69
2022/05/10 12:23:20;;;;;;;5.20;2.60;;;;;;;22.18;33.92;99163.44;218955;1274;25006;-69
2022/05/10 12:28:47;;;;;;;4.10;2.70;;;;;;;22.29;33.90;99155.02;218535;1275;22573;-69
2022/05/10 12:33:58;;;;;;;3.40;2.40;;;;;;;22.40;34.04;99146.95;219563;1274;25334;-69
2022/05/10 12:39:25;;;;;;;3.30;2.70;;;;;;;22.57;33.84;99140.87;219420;1274;24316;-70
2022/05/10 12:44:28;;;;;;;4.10;2.60;;;;;;;22.56;33.20;99131.88;219926;1274;24461;-70
2022/05/10 12:50:07;;;;;;;3.80;2.70;;;;;;;22.58;33.61;99122.64;218679;1274;24772;-69
2022/05/10 12:55:15;;;;;;;;;;;;;;;22.72;33.87;99120.96;218785;1274;22789;-69
2022/05/10 13:00:34;;;;;;;4.90;2.70;;;;;;;22.83;33.35;99115.63;218832;1275;24727;-70
2022/05/10 13:06:22;;;;;;;3.70;2.80;;;;;;;22.94;33.71;99109.09;220476;1275;23017;-69
2022/05/10 13:11:51;;;;;;;3.20;2.70;;;;;;;22.98;33.31;99099.73;218998;1275;24244;-70
2022/05/10 13:16:56;;;;;;;5.10;3.20;;;;;;;23.01;33.26;99093.46;219381;1275;24386;-72
2022/05/10 13:22:20;;;;;;;4.10;2.80;;;;;;;23.08;33.27;99083.35;220787;1274;25885;-72
2022/05/10 13:27:33;;;;;;;3.80;2.90;;;;;;;23.25;33.10;99076.31;220983;1275;23821;-70
2022/05/10 13:32:40;;;;;;;5.40;3.00;;;;;;;23.26;32.53;99073.13;221935;1275;23063;-69
2022/05/10 13:37:56;;;;;;;3.40;2.90;;;;;;;23.27;33.01;99058.85;221424;1273;25353;-71
2022/05/10 13:43:12;;;;;;;4.30;3.10;;;;;;;23.36;32.70;99053.21;220924;1275;22659;-71
2022/05/10 13:48:15;;;;;;;4.20;3.30;;;;;;;23.46;33.03;99050.08;221631;1274;22573;-70
2022/05/10 13:53:26;;;;;;;3.00;2.70;;;;;;;23.65;32.97;99045.51;220890;1274;22716;-70
2022/05/10 13:58:46;;;;;;;4.10;2.50;;;;;;;23.72;32.29;99039.34;220754;1275;23479;-70
2022/05/10 14:03:48;;;;;;;3.80;3.40;;;;;;;23.69;32.48;99033.84;221472;1275;22558;-70
2022/05/10 14:08:54;;;;;;;4.70;3.10;;;;;;;23.71;32.39;99022.39;220662;1274;22585;-70
2022/05/10 14:13:58;;;;;;;4.30;3.30;;;;;;;23.72;32.36;99014.88;219199;1276;22686;-70
2022/05/10 14:19:07;;;;;;;3.80;3.00;;;;;;;23.72;32.26;99008.41;219175;1275;24095;-70
2022/05/10 14:24:17;;;;;;;4.50;4.00;;;;;;;23.75;32.47;99000.39;219458;1275;24322;-69
2022/05/10 14:29:27;;;;;;;5.00;4.20;;;;;;;23.81;31.98;98997.18;219651;1275;22673;-70
2022/05/10 14:34:54;;;;;;;3.10;2.80;;;;;;;23.70;31.54;98991.04;219339;1275;24296;-71
2022/05/10 14:40:20;;;;;;;4.80;3.50;;;;;;;23.59;31.90;98984.96;219472;1274;22702;-71
2022/05/10 14:45:25;;;;;;;4.00;3.50;;;;;;;23.58;32.08;98980.40;220974;1274;22763;-70
2022/05/10 14:50:41;;;;;;;4.30;2.90;;;;;;;23.52;32.22;98976.44;220565;1275;22611;-70
2022/05/10 14:56:14;;;;;;;5.50;3.00;;;;;;;23.52;32.50;98971.04;220911;1277;24310;-70
2022/05/10 15:01:25;;;;;;;5.00;3.40;;;;;;;23.49;32.48;98965.85;220347;1274;23237;-69
2022/05/10 15:06:34;;;;;;;5.20;3.00;;;;;;;23.45;32.49;98958.45;219268;1275;25425;-71
2022/05/10 15:17:16;;;;;;;3.10;2.80;;;;;;;23.47;32.83;98944.65;220379;1274;23809;-71
2022/05/10 15:22:18;;;;;;;4.40;3.10;;;;;;;23.60;32.46;98936.23;219147;1276;22628;-69
2022/05/10 15:27:22;;;;;;;3.20;2.80;;;;;;;23.50;31.84;98932.42;219133;1274;24238;-69
2022/05/10 15:32:24;;;;;;;3.30;2.90;;;;;;;23.51;32.13;98931.59;219085;1274;24157;-71
2022/05/10 15:37:31;;;;;;;4.20;3.10;;;;;;;23.57;32.28;98927.05;219029;1274;24150;-71
2022/05/10 15:42:49;;;;;;;4.00;2.80;;;;;;;23.55;32.55;98922.95;219448;1274;24282;-70
2022/05/10 15:47:53;;;;;;;3.60;2.90;;;;;;;23.50;32.11;98917.10;219340;1274;24227;-70
2022/05/10 15:52:58;;;;;;;3.10;2.70;;;;;;;23.40;31.67;98917.84;219669;1274;27284;-69
2022/05/10 15:58:00;;;;;;;2.90;1.90;;;;;;;23.29;30.19;98914.27;219413;1274;24497;-70
2022/05/10 16:03:02;;;;;;;5.10;1.90;;;;;;;23.18;29.41;98908.42;219222;1274;23855;-70
2022/05/10 16:08:05;;;;;;;2.90;2.40;;;;;;;23.11;29.72;98906.52;219273;1274;24749;-70
2022/05/10 16:13:12;;;;;;;4.10;2.20;;;;;;;23.05;29.95;98896.05;219157;1274;24794;-69
2022/05/10 16:18:19;;;;;;;3.60;1.90;;;;;;;22.97;30.11;98895.00;219195;1274;22645;-69
2022/05/10 16:23:22;;;;;;;4.00;2.20;;;;;;;22.89;30.01;98892.45;219205;1274;25774;-69
2022/05/10 16:33:45;;;;;;;3.50;2.50;;;;;;;22.77;30.54;98879.65;219147;1274;22738;-70
2022/05/10 16:38:48;;;;;;;4.20;2.40;;;;;;;22.69;30.78;98880.63;219158;1274;25346;-69
2022/05/10 16:43:53;;;;;;;7.30;6.10;;;;;;;22.59;31.05;98878.52;219040;1274;22551;-70
2022/05/10 16:49:03;;;;;;;5.10;3.00;;;;;;;22.52;31.04;98875.44;219403;1274;25364;-71
2022/05/10 16:54:12;;;;;;;5.10;2.30;;;;;;;22.45;31.07;98871.60;219019;1274;22698;-70
2022/05/10 16:59:18;;;;;;;2.60;1.90;;;;;;;22.37;31.02;98866.25;219592;1274;22970;-69
2022/05/10 17:04:20;;;;;;;5.50;3.00;;;;;;;22.27;30.94;98866.84;219224;1274;24263;-70
2022/05/10 17:09:22;;;;;;;5.10;2.40;;;;;;;22.14;31.11;98868.17;219281;1275;22676;-70
2022/05/10 17:14:32;;;;;;;5.30;1.90;;;;;;;21.96;31.50;98864.75;219618;1274;22574;-70
2022/05/10 17:19:35;;;;;;;3.80;1.90;;;;;;;21.80;31.95;98857.45;219523;1274;22565;-71
2022/05/10 17:24:38;;;;;;;3.70;1.80;;;;;;;21.80;32.08;98850.92;219385;1274;25401;-70
2022/05/10 17:29:41;;;;;;;3.40;1.80;;;;;;;21.71;32.12;98852.14;221157;1274;25287;-69
2022/05/10 17:34:46;;;;;;;4.90;1.90;;;;;;;21.48;32.17;98849.98;218995;1274;23073;-69
2022/05/10 17:39:56;;;;;;;5.20;2.60;;;;;;;21.22;32.52;98850.30;219076;1275;22610;-70
2022/05/10 17:44:59;;;;;;;4.60;2.10;;;;;;;20.94;32.84;98849.32;219753;1274;24350;-71
2022/05/10 17:50:02;;;;;;;5.40;2.00;;;;;;;20.67;33.39;98849.59;220496;1275;25265;-70
2022/05/10 17:55:06;;;;;;;4.00;2.00;;;;;;;20.42;33.88;98849.69;219180;1274;23758;-69
2022/05/10 18:00:25;;;;;;;2.30;1.60;;;;;;;20.19;34.34;98853.94;221236;1274;22566;-70
2022/05/10 18:05:28;;;;;;;4.60;2.10;;;;;;;19.93;35.00;98852.68;220576;1275;24797;-70
2022/05/10 18:10:31;;;;;;;3.00;1.70;;;;;;;19.66;35.27;98850.45;220618;1274;25908;-70
2022/05/10 18:15:34;;;;;;;3.80;2.20;;;;;;;19.38;35.84;98852.66;220400;1275;22566;-71
2022/05/10 18:20:38;;;;;;;5.50;2.20;;;;;;;19.11;36.71;98854.67;220502;1274;22558;-70
2022/05/10 18:26:00;;;;;;;6.80;2.20;;;;;;;18.81;37.37;98853.85;220487;1275;22560;-69
2022/05/10 18:31:06;;;;;;;6.10;2.50;;;;;;;18.52;38.01;98857.59;219191;1274;24259;-70
2022/05/10 18:36:19;;;;;;;5.80;2.90;;;;;;;18.24;38.79;98855.31;220923;1274;25243;-70
2022/05/10 18:41:28;;;;;;;7.60;3.00;;;;;;;17.99;39.50;98859.83;218917;1274;24246;-68
2022/05/10 18:46:50;;;;;;;3.80;3.10;;;;;;;17.73;39.79;98864.34;218914;1274;25498;-70
2022/05/10 18:51:53;;;;;;;5.20;2.70;;;;;;;17.49;40.28;98874.57;220366;1274;24292;-69
2022/05/10 18:56:55;;;;;;;4.60;3.00;;;;;;;17.28;40.57;98876.96;219200;1273;22723;-70
2022/05/10 19:02:08;;;;;;;;;;;;;;;;;;;;;
2022/05/10 19:07:12;;;;;;;6.00;3.70;;;;;;;16.90;41.69;98881.58;219430;1275;25247;-71
2022/05/10 19:12:15;;;;;;;8.30;4.30;;;;;;;16.73;42.31;98878.95;219240;1274;22557;-69
2022/05/10 19:17:22;;;;;;;8.20;3.90;;;;;;;16.54;42.47;98878.86;219167;1275;24272;-70
2022/05/10 19:22:24;;;;;;;6.10;3.70;;;;;;;16.36;42.98;98877.51;219218;1274;22500;-70
2022/05/10 19:27:33;;;;;;;8.10;4.10;;;;;;;16.18;43.47;98877.23;220845;1274;22566;-69
2022/05/10 19:32:39;;;;;;;8.30;3.70;;;;;;;16.02;44.16;98873.86;219264;1275;22796;-69
2022/05/10 19:37:45;;;;;;;6.80;3.90;;;;;;;15.86;44.58;98877.70;219794;1274;24157;-69
2022/05/10 19:42:47;;;;;;;9.10;4.60;;;;;;;15.71;45.28;98874.87;219299;1274;24352;-69
2022/05/10 19:47:50;;;;;;;5.30;4.10;;;;;;;15.57;45.74;98870.95;219549;1275;26554;-69
2022/05/10 19:52:54;;;;;;;8.60;4.50;;;;;;;15.45;46.54;98868.58;219447;1274;23616;-69
2022/05/10 19:57:58;;;;;;;9.50;4.70;;;;;;;15.34;47.78;98865.81;219683;1274;26204;-71
2022/05/10 20:08:23;;;;;;;11.00;7.50;;;;;;;15.03;48.21;98866.45;219517;1274;25303;-69
2022/05/10 20:13:28;;;;;;;12.00;7.80;;;;;;;14.91;48.40;98872.02;219298;1276;22595;-70
2022/05/10 20:18:31;;;;;;;8.40;6.30;;;;;;;14.81;48.34;98876.21;219423;1275;22600;-70
2022/05/10 20:23:41;;;;;;;9.30;6.70;;;;;;;14.70;48.39;98872.20;219689;1274;22553;-70
2022/05/10 20:28:53;;;;;;;9.40;6.00;;;;;;;14.62;48.38;98875.33;219835;1274;24326;-69
2022/05/10 20:34:16;;;;;;;9.70;6.50;;;;;;;14.52;48.50;98867.54;219090;1274;24345;-69
2022/05/10 20:39:18;;;;;;;8.70;6.60;;;;;;;14.43;49.07;98867.73;219114;1274;24298;-69
2022/05/10 20:44:23;;;;;;;13.10;7.10;;;;;;;14.37;49.36;98860.80;219170;1275;22703;-69
2022/05/10 20:49:26;;;;;;;10.10;6.70;;;;;;;14.31;49.45;98860.10;219260;1273;25189;-70
2022/05/10 20:54:29;;;;;;;12.50;6.80;;;;;;;14.27;49.74;98858.77;220849;1274;23179;-70
2022/05/10 20:59:54;;;;;;;10.40;7.40;;;;;;;14.22;49.70;98858.01;220703;1273;22559;-70
2022/05/10 21:05:12;;;;;;;11.40;7.30;;;;;;;14.16;49.83;98861.34;219342;1273;26148;-69
2022/05/10 21:10:24;;;;;;;12.60;8.00;;;;;;;14.11;49.94;98860.07;219261;1274;23089;-71
2022/05/10 21:15:38;;;;;;;10.90;7.70;;;;;;;14.05;50.10;98855.59;218891;1274;25423;-69
2022/05/10 21:20:59;;;;;;;11.70;8.00;;;;;;;14.00;50.35;98853.77;219246;1274;24363;-70
2022/05/10 21:27:06;;;;;;;13.50;9.40;;;;;;;13.94;50.41;98850.09;218983;1275;22567;-70
2022/05/10 21:31:45;;;;;;;14.40;9.40;;;;;;;13.90;50.62;98853.50;219135;1274;22772;-70
2022/05/10 21:37:16;;;;;;;13.30;9.80;;;;;;;13.84;50.64;98852.23;218900;1273;25420;-70
2022/05/10 21:42:22;;;;;;;13.70;9.10;;;;;;;13.80;50.69;98851.70;219245;1275;22704;-69
2022/05/10 21:47:32;;;;;;;19.30;11.30;;;;;;;13.74;50.86;98853.19;219829;1273;24443;-69
2022/05/10 21:52:35;;;;;;;18.30;11.60;;;;;;;13.69;51.13;98850.63;219102;1274;22630;-70
2022/05/10 21:57:38;;;;;;;17.80;12.50;;;;;;;13.63;51.24;98849.27;219154;1273;24228;-70
2022/05/10 22:02:43;;;;;;;19.30;12.00;;;;;;;13.57;51.31;98851.78;219382;1274;25399;-69
2022/05/10 22:07:46;;;;;;;20.70;11.70;;;;;;;13.49;51.44;98850.33;220209;1275;23572;-69
2022/05/10 22:13:07;;;;;;;15.60;10.00;;;;;;;13.42;51.50;98850.14;219212;1275;25411;-69
2022/05/10 22:18:11;;;;;;;14.60;9.00;;;;;;;13.33;51.48;98844.61;220575;1274;22579;-69
2022/05/10 22:23:13;;;;;;;14.70;9.40;;;;;;;13.27;51.41;98841.10;220018;1274;25313;-70
2022/05/10 22:28:19;;;;;;;13.10;8.30;;;;;;;13.20;51.60;98838.49;219308;1274;26321;-69
2022/05/10 22:33:22;;;;;;;14.40;8.10;;;;;;;13.16;51.44;98839.80;219684;1274;22560;-68
2022/05/10 22:38:25;;;;;;;11.20;7.70;;;;;;;13.09;51.43;98838.68;219312;1273;22610;-69
2022/05/10 22:48:47;;;;;;;10.60;7.60;;;;;;;12.95;51.65;98824.38;219055;1276;22534;-70
2022/05/10 22:53:54;;;;;;;12.30;8.10;;;;;;;12.85;51.66;98822.96;219205;1274;22607;-70
2022/05/10 23:04:45;;;;;;;13.10;8.10;;;;;;;12.70;52.18;98819.37;219233;1274;24329;-69
2022/05/10 23:10:08;;;;;;;14.80;8.60;;;;;;;12.65;52.19;98814.84;219180;1275;22563;-70
2022/05/10 23:15:14;;;;;;;13.10;8.30;;;;;;;12.61;52.14;98812.92;219751;1275;22580;-69
2022/05/10 23:20:17;;;;;;;11.50;8.50;;;;;;;12.56;52.23;98811.85;219210;1274;25385;-70
2022/05/10 23:25:26;;;;;;;9.60;7.20;;;;;;;12.51;52.37;98810.14;219256;1274;22582;-70
2022/05/10 23:30:32;;;;;;;10.80;6.90;;;;;;;12.43;52.19;98805.29;219091;1274;25307;-70
2022/05/10 23:35:36;;;;;;;10.70;7.20;;;;;;;12.39;52.45;98799.95;220002;1275;22538;-70
2022/05/10 23:40:44;;;;;;;11.20;6.70;;;;;;;12.34;52.65;98791.45;219842;1274;22534;-69
2022/05/10 23:45:47;;;;;;;10.50;7.20;;;;;;;12.30;52.67;98788.30;219013;1276;25244;-70
2022/05/10 23:50:50;;;;;;;12.30;6.70;;;;;;;12.27;52.84;98783.80;219610;1276;25653;-69
2022/05/10 23:56:04;;;;;;;10.50;7.40;;;;;;;12.22;52.93;98781.92;219706;1274;25292;-69
